createdAt,value
2023-02-16T00:00:53.059Z,9.07
2023-02-16T00:03:24.842Z,8.00
2023-02-16T00:05:56.610Z,9.27
2023-02-16T00:08:28.311Z,9.03
2023-02-16T00:11:18.617Z,9.33
2023-02-16T00:13:53.120Z,9.43
2023-02-16T00:16:25.272Z,9.70
2023-02-16T00:18:56.981Z,7.53
2023-02-16T00:21:28.731Z,7.73
2023-02-16T00:24:00.482Z,9.53
2023-02-16T00:26:34.922Z,11.40
2023-02-16T00:29:06.631Z,8.43
2023-02-16T00:31:38.416Z,9.50
2023-02-16T00:34:30.523Z,8.73
2023-02-16T00:37:05.107Z,8.40
2023-02-16T00:39:38.290Z,8.43
2023-02-16T00:42:20.745Z,7.17
2023-02-16T00:44:55.611Z,8.53
2023-02-16T00:47:37.247Z,8.50
2023-02-16T00:50:22.332Z,8.13
2023-02-16T00:52:54.118Z,8.60
2023-02-16T00:55:35.180Z,9.40
2023-02-16T00:58:24.244Z,8.10
2023-02-16T01:01:00.915Z,9.40
2023-02-16T01:03:32.748Z,8.30
2023-02-16T01:06:23.361Z,7.90
2023-02-16T01:09:21.274Z,8.80
2023-02-16T01:11:52.974Z,7.33
2023-02-16T01:14:25.100Z,8.20
2023-02-16T01:16:57.828Z,9.07
2023-02-16T01:19:29.574Z,8.50
2023-02-16T01:22:01.257Z,8.80
2023-02-16T01:24:33.182Z,10.37
2023-02-16T01:27:04.879Z,10.90
2023-02-16T01:29:36.592Z,9.77
2023-02-16T01:32:12.536Z,9.53
2023-02-16T01:34:44.401Z,9.47
2023-02-16T01:37:16.557Z,10.87
2023-02-16T01:39:49.179Z,9.50
2023-02-16T01:42:38.638Z,8.83
2023-02-16T01:45:33.920Z,8.63
2023-02-16T01:48:13.847Z,8.23
2023-02-16T01:51:12.840Z,8.20
2023-02-16T01:53:50.383Z,10.00
2023-02-16T01:56:59.844Z,8.77
2023-02-16T01:59:31.532Z,10.37
2023-02-16T02:02:11.826Z,7.50
2023-02-16T02:05:23.720Z,8.67
2023-02-16T02:08:26.557Z,9.23
2023-02-16T02:11:30.199Z,8.50
2023-02-16T02:14:07.178Z,9.07
2023-02-16T02:16:39.707Z,10.20
2023-02-16T02:19:11.412Z,8.70
2023-02-16T02:22:22.426Z,9.43
2023-02-16T02:25:51.637Z,9.20
2023-02-16T02:28:41.976Z,7.83
2023-02-16T02:31:13.873Z,9.20
2023-02-16T02:34:08.346Z,10.10
2023-02-16T02:36:56.391Z,8.90
2023-02-16T02:40:03.241Z,9.23
2023-02-16T02:42:56.953Z,10.47
2023-02-16T02:45:36.351Z,10.50
2023-02-16T02:48:08.152Z,9.57
2023-02-16T02:50:39.884Z,12.00
2023-02-16T02:53:16.410Z,9.63
2023-02-16T02:56:08.753Z,9.93
2023-02-16T02:59:00.488Z,8.30
2023-02-16T03:01:35.303Z,8.43
2023-02-16T03:04:10.155Z,10.40
2023-02-16T03:06:48.120Z,8.20
2023-02-16T03:09:20.832Z,9.53
2023-02-16T03:12:13.063Z,9.93
2023-02-16T03:14:49.949Z,9.73
2023-02-16T03:17:46.386Z,9.50
2023-02-16T03:20:37.434Z,9.30
2023-02-16T03:23:27.906Z,9.47
2023-02-16T03:26:18.640Z,9.00
2023-02-16T03:29:09.749Z,9.07
2023-02-16T03:31:42.107Z,11.07
2023-02-16T03:34:15.435Z,9.67
2023-02-16T03:36:50.198Z,10.07
2023-02-16T03:39:21.939Z,9.80
2023-02-16T03:41:55.461Z,10.20
2023-02-16T03:44:27.325Z,9.03
2023-02-16T03:46:59.106Z,9.33
2023-02-16T03:49:30.879Z,9.57
2023-02-16T03:52:02.593Z,11.77
2023-02-16T03:54:34.318Z,9.27
2023-02-16T03:57:06.200Z,9.87
2023-02-16T03:59:37.914Z,9.27
2023-02-16T04:02:09.692Z,9.73
2023-02-16T04:04:41.398Z,9.90
2023-02-16T04:07:13.348Z,8.10
2023-02-16T04:09:45.085Z,10.47
2023-02-16T04:12:35.601Z,8.97
2023-02-16T04:15:10.883Z,10.33
2023-02-16T04:17:43.102Z,10.53
2023-02-16T04:20:18.061Z,8.73
2023-02-16T04:22:50.578Z,8.90
2023-02-16T04:25:22.713Z,8.17
2023-02-16T04:27:54.735Z,10.53
2023-02-16T04:30:29.764Z,10.77
2023-02-16T04:33:01.558Z,9.30
2023-02-16T04:35:33.270Z,8.73
2023-02-16T04:38:04.986Z,8.97
2023-02-16T04:40:36.701Z,9.57
2023-02-16T04:43:08.458Z,9.43
2023-02-16T04:45:40.168Z,8.17
2023-02-16T04:48:11.864Z,9.17
2023-02-16T04:50:43.606Z,10.40
2023-02-16T04:53:15.328Z,8.50
2023-02-16T04:55:48.172Z,7.80
2023-02-16T04:58:19.863Z,10.53
2023-02-16T05:00:51.598Z,9.87
2023-02-16T05:03:23.332Z,10.63
2023-02-16T05:05:55.315Z,9.80
2023-02-16T05:08:27.234Z,9.07
2023-02-16T05:11:17.380Z,7.40
2023-02-16T05:14:07.790Z,9.53
2023-02-16T05:16:39.509Z,9.07
2023-02-16T05:19:11.988Z,7.67
2023-02-16T05:21:43.714Z,9.23
2023-02-16T05:24:15.420Z,9.60
2023-02-16T05:26:47.161Z,9.07
2023-02-16T05:29:18.882Z,10.07
2023-02-16T05:31:50.758Z,10.10
2023-02-16T05:34:22.612Z,9.97
2023-02-16T05:36:55.178Z,9.77
2023-02-16T05:39:26.920Z,9.77
2023-02-16T05:41:58.754Z,10.60
2023-02-16T05:44:30.644Z,10.80
2023-02-16T05:47:02.384Z,9.27
2023-02-16T05:49:34.290Z,10.77
2023-02-16T05:52:06.127Z,10.40
2023-02-16T05:54:37.877Z,9.80
2023-02-16T05:57:10.096Z,9.97
2023-02-16T05:59:41.793Z,10.97
2023-02-16T06:02:13.574Z,9.97
2023-02-16T06:04:45.361Z,9.50
2023-02-16T06:07:17.119Z,10.50
2023-02-16T06:09:48.842Z,8.67
2023-02-16T06:12:20.599Z,8.97
2023-02-16T06:14:52.386Z,9.23
2023-02-16T06:17:24.270Z,10.00
2023-02-16T06:19:55.971Z,8.97
2023-02-16T06:22:27.683Z,8.67
2023-02-16T06:24:59.394Z,8.53
2023-02-16T06:27:31.351Z,8.73
2023-02-16T06:30:04.104Z,8.93
2023-02-16T06:32:36.097Z,9.07
2023-02-16T06:35:08.131Z,8.07
2023-02-16T06:37:39.879Z,8.13
2023-02-16T06:40:15.963Z,9.00
2023-02-16T06:42:47.719Z,9.50
2023-02-16T06:45:19.751Z,9.37
2023-02-16T06:47:51.486Z,9.47
2023-02-16T06:50:23.266Z,8.90
2023-02-16T06:52:55.074Z,8.47
2023-02-16T06:55:26.783Z,9.23
2023-02-16T06:57:58.510Z,7.97
2023-02-16T07:00:30.588Z,8.93
2023-02-16T07:03:02.585Z,10.33
2023-02-16T07:05:34.441Z,8.70
2023-02-16T07:08:06.239Z,8.90
2023-02-16T07:10:49.503Z,9.43
2023-02-16T07:13:22.141Z,9.27
2023-02-16T07:15:53.905Z,8.47
2023-02-16T07:18:25.634Z,9.50
2023-02-16T07:20:57.367Z,9.80
2023-02-16T07:23:29.111Z,8.57
2023-02-16T07:26:00.911Z,9.37
2023-02-16T07:28:32.652Z,8.53
2023-02-16T07:31:12.714Z,9.80
2023-02-16T07:33:45.177Z,8.53
2023-02-16T07:36:16.880Z,9.67
2023-02-16T07:38:48.652Z,8.93
2023-02-16T07:41:20.670Z,7.90
2023-02-16T07:43:52.381Z,10.23
2023-02-16T07:46:24.209Z,7.93
2023-02-16T07:48:55.929Z,8.23
2023-02-16T07:51:30.724Z,9.77
2023-02-16T07:54:02.615Z,9.20
2023-02-16T07:56:35.611Z,8.93
2023-02-16T07:59:07.468Z,10.20
2023-02-16T08:01:39.993Z,9.67
2023-02-16T08:04:11.835Z,10.80
2023-02-16T08:06:44.071Z,8.93
2023-02-16T08:09:15.894Z,8.97
2023-02-16T08:11:47.615Z,8.93
2023-02-16T08:14:19.361Z,8.37
2023-02-16T08:16:54.167Z,10.30
2023-02-16T08:19:29.146Z,11.20
2023-02-16T08:22:02.493Z,8.33
2023-02-16T08:24:35.165Z,9.37
2023-02-16T08:27:07.353Z,9.40
2023-02-16T08:29:39.210Z,9.83
2023-02-16T08:32:13.104Z,10.93
2023-02-16T08:34:44.971Z,9.33
2023-02-16T08:37:16.693Z,9.13
2023-02-16T08:39:49.181Z,8.70
2023-02-16T08:42:21.279Z,9.73
2023-02-16T08:44:53.209Z,8.50
2023-02-16T08:47:24.955Z,8.57
2023-02-16T08:49:56.781Z,9.03
2023-02-16T08:52:28.962Z,9.93
2023-02-16T08:55:00.726Z,9.60
2023-02-16T08:57:35.766Z,10.53
2023-02-16T09:00:26.847Z,9.47
2023-02-16T09:02:59.876Z,10.37
2023-02-16T09:05:31.591Z,10.17
2023-02-16T09:08:03.420Z,10.43
2023-02-16T09:10:35.209Z,10.67
2023-02-16T09:13:10.585Z,11.70
2023-02-16T09:15:45.663Z,10.23
2023-02-16T09:18:17.421Z,10.60
2023-02-16T09:20:49.146Z,11.30
2023-02-16T09:23:21.990Z,10.77
2023-02-16T09:25:53.865Z,12.27
2023-02-16T09:28:25.572Z,10.97
2023-02-16T09:30:57.388Z,10.33
2023-02-16T09:33:29.180Z,11.43
2023-02-16T09:36:05.521Z,9.53
2023-02-16T09:38:41.565Z,10.50
2023-02-16T09:41:51.860Z,9.60
2023-02-16T09:44:49.219Z,10.80
2023-02-16T09:47:33.679Z,10.27
2023-02-16T09:50:17.099Z,9.10
2023-02-16T09:53:03.605Z,10.17
2023-02-16T09:56:13.957Z,10.50
2023-02-16T09:59:12.632Z,10.17
2023-02-16T10:01:50.495Z,12.50
2023-02-16T10:04:31.893Z,10.00
2023-02-16T10:07:24.625Z,10.93
2023-02-16T10:09:58.829Z,7.73
2023-02-16T10:12:41.268Z,10.67
2023-02-16T10:15:26.539Z,9.43
2023-02-16T10:18:02.950Z,9.90
2023-02-16T10:20:40.678Z,9.27
2023-02-16T10:23:44.992Z,10.00
2023-02-16T10:26:40.594Z,11.47
2023-02-16T10:29:19.324Z,10.87
2023-02-16T10:32:00.039Z,9.33
2023-02-16T10:34:45.355Z,9.53
2023-02-16T10:37:39.255Z,8.93
2023-02-16T10:40:23.210Z,8.97
2023-02-16T10:43:03.948Z,8.63
2023-02-16T10:45:52.731Z,9.73
2023-02-16T10:48:26.195Z,9.70
2023-02-16T10:51:09.171Z,9.77
2023-02-16T10:53:49.961Z,12.00
2023-02-16T10:56:33.519Z,9.43
2023-02-16T10:59:12.860Z,10.00
2023-02-16T11:02:06.625Z,12.03
2023-02-16T11:04:43.297Z,10.50
2023-02-16T11:07:22.093Z,9.20
2023-02-16T11:09:56.250Z,9.97
2023-02-16T11:12:35.106Z,9.87
2023-02-16T11:15:17.550Z,11.13
2023-02-16T11:18:04.773Z,11.70
2023-02-16T11:20:44.968Z,11.47
2023-02-16T11:23:26.885Z,11.37
2023-02-16T11:26:11.727Z,11.67
2023-02-16T11:28:44.965Z,12.10
2023-02-16T11:31:18.791Z,10.53
2023-02-16T11:34:01.233Z,11.77
2023-02-16T11:36:39.911Z,14.03
2023-02-16T11:39:20.474Z,10.30
2023-02-16T11:41:54.079Z,12.97
2023-02-16T11:44:28.614Z,11.00
2023-02-16T11:47:07.925Z,13.70
2023-02-16T11:49:41.761Z,11.30
2023-02-16T11:52:29.211Z,11.47
2023-02-16T11:55:02.263Z,12.50
2023-02-16T11:57:36.764Z,11.43
2023-02-16T12:00:35.047Z,11.93
2023-02-16T12:03:33.652Z,13.30
2023-02-16T12:06:33.599Z,12.57
2023-02-16T12:22:26.294Z,18.07
2023-02-16T12:25:25.481Z,14.37
2023-02-16T12:28:16.401Z,14.00
2023-02-16T12:31:26.763Z,12.13
2023-02-16T12:34:36.729Z,13.80
2023-02-16T12:37:26.781Z,19.47
2023-02-16T12:40:22.187Z,17.33
2023-02-16T12:43:32.245Z,16.43
2023-02-16T12:46:28.118Z,16.43
2023-02-16T12:49:13.934Z,17.70
2023-02-16T12:51:53.060Z,16.77
2023-02-16T12:54:33.094Z,16.53
2023-02-16T12:57:13.779Z,18.00
2023-02-16T12:59:55.383Z,19.57
2023-02-16T13:02:40.544Z,16.53
2023-02-16T13:05:25.973Z,21.50
2023-02-16T13:08:07.976Z,18.40
2023-02-16T13:11:07.443Z,17.03
2023-02-16T13:13:41.316Z,18.63
2023-02-16T13:16:30.504Z,20.50
2023-02-16T13:19:02.835Z,19.13
2023-02-16T13:21:52.881Z,19.67
2023-02-16T13:24:52.156Z,19.33
2023-02-16T13:27:57.894Z,17.07
2023-02-16T13:30:33.966Z,17.30
2023-02-16T13:33:18.728Z,18.53
2023-02-16T13:36:09.968Z,17.93
2023-02-16T13:38:59.706Z,18.77
2023-02-16T13:41:40.256Z,19.70
2023-02-16T13:44:18.904Z,20.73
2023-02-16T13:46:53.855Z,18.73
2023-02-16T13:49:42.255Z,18.77
2023-02-16T13:52:39.507Z,16.87
2023-02-16T13:55:24.974Z,17.90
2023-02-16T13:58:04.459Z,24.33
2023-02-16T14:00:42.634Z,50.77
2023-02-16T14:03:21.084Z,51.23
2023-02-16T14:05:55.877Z,36.67
2023-02-16T14:08:29.546Z,32.37
2023-02-16T14:11:04.021Z,16.80
2023-02-16T14:13:38.502Z,17.87
2023-02-16T14:16:13.246Z,17.87
2023-02-16T14:18:58.475Z,18.50
2023-02-16T14:21:35.983Z,30.10
2023-02-16T14:24:13.456Z,21.10
2023-02-16T14:27:13.003Z,19.37
2023-02-16T14:30:00.526Z,16.53
2023-02-16T14:32:38.537Z,17.50
2023-02-16T14:35:22.892Z,17.40
2023-02-16T14:38:03.470Z,18.10
2023-02-16T14:40:35.259Z,18.93
2023-02-16T14:43:22.918Z,20.13
2023-02-16T14:46:13.717Z,17.37
2023-02-16T14:49:16.316Z,18.57
2023-02-16T14:52:12.936Z,17.23
2023-02-16T14:55:07.661Z,19.10
2023-02-16T14:57:50.189Z,17.87
2023-02-16T15:00:31.139Z,17.00
2023-02-16T15:03:26.992Z,16.60
2023-02-16T15:06:06.271Z,16.07
2023-02-16T15:08:40.172Z,15.87
2023-02-16T15:11:16.918Z,17.07
2023-02-16T15:13:53.400Z,17.50
2023-02-16T15:16:25.143Z,16.33
2023-02-16T15:18:57.476Z,17.10
2023-02-16T15:21:30.595Z,16.83
2023-02-16T15:24:02.367Z,17.37
2023-02-16T15:26:35.822Z,16.53
2023-02-16T15:29:33.919Z,15.40
2023-02-16T15:32:07.047Z,14.27
2023-02-16T15:34:41.078Z,15.77
2023-02-16T15:37:29.630Z,15.07
2023-02-16T15:40:25.396Z,14.40
2023-02-16T15:43:07.819Z,15.40
2023-02-16T15:45:39.587Z,14.50
2023-02-16T15:48:26.447Z,14.73
2023-02-16T15:51:06.888Z,14.00
2023-02-16T15:53:46.773Z,14.30
2023-02-16T15:56:47.261Z,14.67
2023-02-16T15:59:22.263Z,14.37
2023-02-16T16:02:12.119Z,15.73
2023-02-16T16:04:50.081Z,15.23
2023-02-16T16:07:26.609Z,13.53
2023-02-16T16:09:59.611Z,12.23
2023-02-16T16:12:31.513Z,14.40
2023-02-16T16:15:04.444Z,13.50
2023-02-16T16:17:39.595Z,14.07
2023-02-16T16:20:30.967Z,13.00
2023-02-16T16:23:24.378Z,13.83
2023-02-16T16:25:56.652Z,11.90
2023-02-16T16:28:28.365Z,13.33
2023-02-16T16:31:11.739Z,13.63
2023-02-16T16:33:59.556Z,13.33
2023-02-16T16:36:45.618Z,12.90
2023-02-16T16:39:17.329Z,11.67
2023-02-16T16:42:18.149Z,13.03
2023-02-16T16:44:56.944Z,14.47
2023-02-16T16:47:40.258Z,12.27
2023-02-16T16:50:14.386Z,12.00
2023-02-16T16:52:48.938Z,13.90
2023-02-16T16:55:24.974Z,12.57
2023-02-16T16:58:04.250Z,12.57
2023-02-16T17:00:38.975Z,13.10
2023-02-16T17:03:15.458Z,14.47
2023-02-16T17:05:47.424Z,12.33
2023-02-16T17:08:19.247Z,12.90
2023-02-16T17:10:51.027Z,12.60
2023-02-16T17:13:22.730Z,12.50
2023-02-16T17:16:01.071Z,13.23
2023-02-16T17:18:33.000Z,13.30
2023-02-16T17:21:05.281Z,12.87
2023-02-16T17:23:45.209Z,12.77
2023-02-16T17:26:22.818Z,11.47
2023-02-16T17:28:54.498Z,13.93
2023-02-16T17:31:26.338Z,15.27
2023-02-16T17:33:58.140Z,13.07
2023-02-16T17:36:30.133Z,13.07
2023-02-16T17:39:01.957Z,11.10
2023-02-16T17:41:33.693Z,14.07
2023-02-16T17:44:05.448Z,12.73
2023-02-16T17:46:37.171Z,14.37
2023-02-16T17:49:11.189Z,13.63
2023-02-16T17:51:42.887Z,14.60
2023-02-16T17:54:14.576Z,12.13
2023-02-16T17:56:47.077Z,13.87
2023-02-16T17:59:18.777Z,13.37
2023-02-16T18:01:50.473Z,13.80
2023-02-16T18:04:22.410Z,14.33
2023-02-16T18:06:54.163Z,15.33
2023-02-16T18:09:25.841Z,14.33
2023-02-16T18:11:57.582Z,14.20
2023-02-16T18:14:29.312Z,15.50
2023-02-16T18:17:01.472Z,13.73
2023-02-16T18:19:34.258Z,11.37
2023-02-16T18:22:05.978Z,12.33
2023-02-16T18:24:37.687Z,12.83
2023-02-16T18:27:10.336Z,12.80
2023-02-16T18:29:42.061Z,14.20
2023-02-16T18:32:13.776Z,13.77
2023-02-16T18:34:45.596Z,12.80
2023-02-16T18:37:17.384Z,12.33
2023-02-16T18:39:49.118Z,15.47
2023-02-16T18:42:20.911Z,13.77
2023-02-16T18:44:52.681Z,13.03
2023-02-16T18:47:24.526Z,11.97
2023-02-16T18:49:56.337Z,14.77
2023-02-16T18:52:28.077Z,12.77
2023-02-16T18:54:59.781Z,11.67
2023-02-16T18:57:31.536Z,12.50
2023-02-16T19:00:06.702Z,12.50
2023-02-16T19:02:40.736Z,13.80
2023-02-16T19:05:12.500Z,11.90
2023-02-16T19:07:44.211Z,12.90
2023-02-16T19:10:16.891Z,13.07
2023-02-16T19:12:48.619Z,14.23
2023-02-16T19:15:20.401Z,12.77
2023-02-16T19:17:52.285Z,13.27
2023-02-16T19:20:24.227Z,12.70
2023-02-16T19:22:56.358Z,12.57
2023-02-16T19:25:29.272Z,13.40
2023-02-16T19:28:01.017Z,13.83
2023-02-16T19:30:32.960Z,13.43
2023-02-16T19:33:04.752Z,12.70
2023-02-16T19:35:36.517Z,12.83
2023-02-16T19:38:08.287Z,12.33
2023-02-16T19:40:40.041Z,12.67
2023-02-16T19:43:11.774Z,12.57
2023-02-16T19:45:43.472Z,10.47
2023-02-16T19:48:15.222Z,9.53
2023-02-16T19:50:46.967Z,10.87
2023-02-16T19:53:18.665Z,12.63
2023-02-16T19:55:52.295Z,11.83
2023-02-16T19:58:25.301Z,13.23
2023-02-16T20:00:57.099Z,11.73
2023-02-16T20:03:28.851Z,11.23
2023-02-16T20:06:00.681Z,13.87
2023-02-16T20:08:32.419Z,12.23
2023-02-16T20:11:04.923Z,11.60
2023-02-16T20:13:36.910Z,13.27
2023-02-16T20:16:09.897Z,12.03
2023-02-16T20:18:42.295Z,11.63
2023-02-16T20:21:17.416Z,13.07
2023-02-16T20:23:55.486Z,12.30
2023-02-16T20:26:34.741Z,13.97
2023-02-16T20:29:08.531Z,12.03
2023-02-16T20:31:51.308Z,12.03
2023-02-16T20:34:25.951Z,14.67
2023-02-16T20:36:58.346Z,13.00
2023-02-16T20:39:30.129Z,11.67
2023-02-16T20:42:01.870Z,11.33
2023-02-16T20:44:33.619Z,10.70
2023-02-16T20:47:07.980Z,10.73
2023-02-16T20:49:39.755Z,9.27
2023-02-16T20:52:11.575Z,9.73
2023-02-16T20:54:43.330Z,10.17
2023-02-16T20:57:26.015Z,9.97
2023-02-16T20:59:58.701Z,8.20
2023-02-16T21:02:30.452Z,9.10
2023-02-16T21:05:02.157Z,10.53
2023-02-16T21:07:33.989Z,9.50
2023-02-16T21:10:08.002Z,9.13
2023-02-16T21:12:39.761Z,9.90
2023-02-16T21:15:12.492Z,8.90
2023-02-16T21:17:44.483Z,10.27
2023-02-16T21:20:16.499Z,9.83
2023-02-16T21:22:48.321Z,10.67
2023-02-16T21:25:20.047Z,10.23
2023-02-16T21:27:51.752Z,9.57
2023-02-16T21:30:23.853Z,10.23
2023-02-16T21:32:55.887Z,10.40
2023-02-16T21:35:28.027Z,9.77
2023-02-16T21:37:59.914Z,10.03
2023-02-16T21:40:50.105Z,9.13
2023-02-16T21:43:21.933Z,10.03
2023-02-16T21:46:01.120Z,9.90
2023-02-16T21:48:48.390Z,9.10
2023-02-16T21:51:24.315Z,9.70
2023-02-16T21:53:57.084Z,10.13
2023-02-16T21:56:39.355Z,9.57
2023-02-16T21:59:13.987Z,9.63
2023-02-16T22:01:48.635Z,10.80
2023-02-16T22:04:22.624Z,9.83
2023-02-16T22:06:55.988Z,11.00
2023-02-16T22:09:27.731Z,10.97
2023-02-16T22:11:59.435Z,8.97
2023-02-16T22:14:33.186Z,10.70
2023-02-16T22:17:06.566Z,9.23
2023-02-16T22:19:38.286Z,8.67
2023-02-16T22:22:10.528Z,10.47
2023-02-16T22:24:42.367Z,10.90
2023-02-16T22:27:14.094Z,9.90
2023-02-16T22:29:45.830Z,9.43
2023-02-16T22:32:17.675Z,10.13
2023-02-16T22:34:49.496Z,10.40
2023-02-16T22:37:21.346Z,10.67
2023-02-16T22:39:55.117Z,9.40
2023-02-16T22:42:27.064Z,8.70
2023-02-16T22:44:58.925Z,9.93
2023-02-16T22:47:31.327Z,8.90
2023-02-16T22:50:03.082Z,9.30
2023-02-16T22:52:36.353Z,9.10
2023-02-16T22:55:08.606Z,9.53
2023-02-16T22:57:40.402Z,9.23
2023-02-16T23:00:15.268Z,9.23
2023-02-16T23:02:47.232Z,9.53
2023-02-16T23:05:20.185Z,8.87
2023-02-16T23:07:51.881Z,9.00
2023-02-16T23:10:23.593Z,9.87
2023-02-16T23:12:55.410Z,10.33
2023-02-16T23:15:27.132Z,9.10
2023-02-16T23:17:58.961Z,9.83
2023-02-16T23:20:30.985Z,9.33
2023-02-16T23:23:02.700Z,9.57
2023-02-16T23:25:34.466Z,9.50
2023-02-16T23:28:06.271Z,8.40
2023-02-16T23:30:42.586Z,9.93
2023-02-16T23:33:14.660Z,9.17
2023-02-16T23:35:46.358Z,8.73
2023-02-16T23:38:18.689Z,9.80
2023-02-16T23:41:01.636Z,9.40
2023-02-16T23:43:33.769Z,9.23
2023-02-16T23:46:06.291Z,8.80
2023-02-16T23:48:38.527Z,11.57
2023-02-16T23:51:12.060Z,9.80
2023-02-16T23:53:44.135Z,10.10
2023-02-16T23:56:19.059Z,10.23
2023-02-16T23:58:51.528Z,9.40
